Time;durP1;ratioP1;P1;durP2;ratioP2;P2;SDS_P1;SDS_P2;PMS_P1;PMS_P2;Temp;Humidity;BMP_temperature;BMP_pressure;BME280_temperature;BME280_humidity;BME280_pressure;Samples;Min_cycle;Max_cycle;Signal;HPM_P1;HPM_P2
2022/11/22 00:00:50;;;;;;;0.50;0.30;;;7.40;99.90;;;;;;6190071;23;20448;-77
2022/11/22 00:03:18;;;;;;;0.50;0.10;;;7.40;99.90;;;;;;6188943;23;20404;-77
2022/11/22 00:05:46;;;;;;;0.50;0.10;;;7.50;99.90;;;;;;6189868;23;20470;-77
2022/11/22 00:08:13;;;;;;;0.50;0.20;;;7.40;99.90;;;;;;6190406;23;20400;-78
2022/11/22 00:10:41;;;;;;;0.50;0.10;;;7.50;99.90;;;;;;6190509;23;20424;-77
2022/11/22 00:13:09;;;;;;;0.50;0.10;;;7.50;99.90;;;;;;6190155;23;20400;-76
2022/11/22 00:15:37;;;;;;;0.50;0.10;;;7.40;99.90;;;;;;6189023;23;20401;-76
2022/11/22 00:18:07;;;;;;;0.50;0.10;;;7.40;99.90;;;;;;6188455;23;20422;-77
2022/11/22 00:20:35;;;;;;;0.50;0.10;;;7.40;99.90;;;;;;6188256;23;20436;-77
2022/11/22 00:23:03;;;;;;;0.50;0.10;;;7.40;99.90;;;;;;6187877;23;20467;-77
2022/11/22 00:25:31;;;;;;;0.50;0.10;;;7.40;99.90;;;;;;6189089;23;20400;-77
2022/11/22 00:27:59;;;;;;;0.50;0.10;;;7.30;99.90;;;;;;6189432;23;20419;-76
2022/11/22 00:30:26;;;;;;;0.50;0.10;;;7.40;99.90;;;;;;6188459;23;20802;-76
2022/11/22 00:32:55;;;;;;;0.50;0.10;;;7.40;99.90;;;;;;6190179;23;20797;-75
2022/11/22 00:35:25;;;;;;;0.50;0.10;;;7.40;99.90;;;;;;6189677;23;20396;-77
2022/11/22 00:37:52;;;;;;;0.50;0.10;;;7.30;99.90;;;;;;6187770;23;20408;-76
2022/11/22 00:40:21;;;;;;;0.50;0.10;;;7.40;99.90;;;;;;6188047;23;20768;-75
2022/11/22 00:42:48;;;;;;;0.50;0.10;;;7.50;99.90;;;;;;6190477;23;20934;-76
2022/11/22 00:45:18;;;;;;;0.50;0.10;;;7.50;99.90;;;;;;6190281;23;20484;-77
2022/11/22 00:47:46;;;;;;;0.50;0.10;;;7.50;99.90;;;;;;6190428;23;20415;-76
2022/11/22 00:50:14;;;;;;;0.50;0.10;;;7.50;99.90;;;;;;6191166;23;20412;-77
2022/11/22 00:52:43;;;;;;;0.50;0.10;;;7.50;99.90;;;;;;6188907;23;20431;-76
2022/11/22 00:55:11;;;;;;;0.50;0.10;;;7.50;99.90;;;;;;6192647;23;20488;-75
2022/11/22 00:57:39;;;;;;;0.50;0.10;;;7.50;99.90;;;;;;6191780;23;20420;-77
2022/11/22 05:01:07;;;;;;;0.50;0.10;;;;;;;;;;6075058;23;20483;-75
2022/11/22 05:03:35;;;;;;;0.50;0.10;;;8.20;99.90;;;;;;6187343;23;20822;-76
2022/11/22 05:06:05;;;;;;;0.50;0.10;;;8.20;99.90;;;;;;6187994;23;20407;-76
2022/11/22 05:08:33;;;;;;;0.90;0.70;;;8.20;99.90;;;;;;6188768;23;20407;-77
2022/11/22 05:11:01;;;;;;;0.50;0.10;;;8.20;99.90;;;;;;6189063;23;20420;-78
2022/11/22 05:13:31;;;;;;;0.50;0.20;;;8.20;99.90;;;;;;6189999;23;20884;-77
2022/11/22 05:15:59;;;;;;;0.60;0.50;;;;;;;;;;6129678;23;21156;-70
2022/11/22 05:18:29;;;;;;;0.50;0.10;;;8.30;99.90;;;;;;6123910;23;21027;-70
2022/11/22 05:20:58;;;;;;;0.50;0.10;;;8.30;99.90;;;;;;6125790;23;20489;-70
2022/11/22 05:26:11;;;;;;;0.50;0.10;;;8.20;99.90;;;;;;6125347;23;20453;-71
2022/11/22 05:28:39;;;;;;;2.53;2.43;;;8.20;99.90;;;;;;6125045;23;20414;-71
2022/11/22 05:31:09;;;;;;;0.50;0.10;;;8.20;99.90;;;;;;6124786;23;20469;-71
2022/11/22 05:33:40;;;;;;;0.50;0.10;;;8.20;99.90;;;;;;6124828;23;20410;-72
2022/11/22 05:36:09;;;;;;;0.50;0.10;;;8.20;99.90;;;;;;6125224;23;20422;-71
2022/11/22 05:38:38;;;;;;;0.70;0.33;;;8.20;99.90;;;;;;6125116;23;20635;-71
2022/11/22 05:41:08;;;;;;;0.50;0.10;;;8.20;99.90;;;;;;6124888;23;20434;-71
2022/11/22 05:43:37;;;;;;;0.50;0.30;;;8.10;99.90;;;;;;6125436;23;20442;-72
2022/11/22 05:46:06;;;;;;;0.50;0.10;;;8.10;99.90;;;;;;6125522;23;20429;-72
2022/11/22 05:48:34;;;;;;;0.50;0.20;;;8.10;99.90;;;;;;6125283;23;20437;-72
2022/11/22 05:51:10;;;;;;;0.50;0.20;;;8.10;99.90;;;;;;6125070;23;20402;-71
2022/11/22 05:53:38;;;;;;;0.60;0.50;;;8.10;99.90;;;;;;6125165;23;20402;-71
2022/11/22 05:56:07;;;;;;;0.50;0.10;;;8.10;99.90;;;;;;6126001;23;20430;-73
2022/11/22 05:58:35;;;;;;;0.50;0.10;;;8.10;99.90;;;;;;6126007;23;20406;-71
2022/11/22 06:01:05;;;;;;;12.77;9.80;;;8.10;99.90;;;;;;6125459;23;20438;-71
2022/11/22 06:03:33;;;;;;;0.50;0.10;;;8.10;99.90;;;;;;6124526;23;20410;-72
2022/11/22 06:06:00;;;;;;;0.50;0.20;;;8.00;99.90;;;;;;6124395;23;20501;-71
2022/11/22 06:08:31;;;;;;;0.67;0.27;;;8.00;99.90;;;;;;6124954;23;20971;-71
2022/11/22 06:11:04;;;;;;;0.57;0.23;;;8.00;99.90;;;;;;6125230;23;20461;-71
2022/11/22 06:13:35;;;;;;;0.50;0.10;;;7.90;99.90;;;;;;6125040;23;20461;-71
2022/11/22 06:16:03;;;;;;;0.50;0.10;;;7.80;99.90;;;;;;6124230;23;20438;-70
2022/11/22 06:18:31;;;;;;;0.50;0.17;;;7.80;99.90;;;;;;6125758;23;20425;-71
2022/11/22 06:21:02;;;;;;;1.47;0.43;;;7.80;99.90;;;;;;6124938;23;20492;-71
2022/11/22 06:23:32;;;;;;;0.50;0.20;;;7.80;99.90;;;;;;6124879;23;20394;-70
2022/11/22 06:26:02;;;;;;;0.97;0.23;;;7.70;99.90;;;;;;6125699;23;20426;-71
2022/11/22 06:28:31;;;;;;;0.50;0.10;;;7.70;99.90;;;;;;6125779;23;20481;-71
2022/11/22 06:31:01;;;;;;;0.60;0.43;;;7.70;99.90;;;;;;6125638;23;20401;-71
2022/11/22 06:33:29;;;;;;;0.70;0.30;;;7.60;99.90;;;;;;6124745;23;20406;-72
2022/11/22 06:36:02;;;;;;;0.50;0.10;;;7.60;99.90;;;;;;6124784;23;20421;-72
2022/11/22 06:38:29;;;;;;;0.50;0.10;;;7.60;99.90;;;;;;6125908;23;20406;-70
2022/11/22 06:41:01;;;;;;;0.50;0.20;;;7.60;99.90;;;;;;6125532;23;20497;-70
2022/11/22 06:43:29;;;;;;;0.50;0.10;;;7.60;99.90;;;;;;6126652;23;20414;-72
2022/11/22 06:45:58;;;;;;;0.50;0.30;;;7.60;99.90;;;;;;6126143;23;20422;-72
2022/11/22 06:48:26;;;;;;;0.50;0.20;;;7.60;99.90;;;;;;6125377;23;20436;-71
2022/11/22 06:50:58;;;;;;;0.50;0.10;;;7.60;99.90;;;;;;6124494;23;20451;-72
2022/11/22 06:53:27;;;;;;;0.73;0.50;;;7.60;99.90;;;;;;6124622;23;20413;-71
2022/11/22 06:56:17;;;;;;;0.90;0.50;;;7.60;99.90;;;;;;6125266;23;20428;-71
2022/11/22 06:58:46;;;;;;;0.87;0.80;;;7.50;99.90;;;;;;6125198;23;20386;-72
2022/11/22 07:01:16;;;;;;;0.63;0.63;;;7.50;99.90;;;;;;6125537;23;20468;-71
2022/11/22 07:03:45;;;;;;;0.50;0.20;;;7.40;99.90;;;;;;6124944;23;20402;-73
2022/11/22 07:06:14;;;;;;;0.50;0.10;;;7.40;99.90;;;;;;6123059;23;20532;-72
2022/11/22 07:08:43;;;;;;;0.50;0.20;;;7.50;99.90;;;;;;6125016;23;20477;-72
2022/11/22 07:11:12;;;;;;;0.50;0.20;;;7.40;99.90;;;;;;6124279;23;20410;-71
2022/11/22 07:13:41;;;;;;;1.30;1.30;;;7.50;99.90;;;;;;6124496;23;20406;-71
2022/11/22 07:16:13;;;;;;;0.60;0.37;;;7.50;99.90;;;;;;6124640;23;20766;-71
2022/11/22 07:18:41;;;;;;;1.17;0.83;;;7.50;99.90;;;;;;6124625;23;20409;-71
2022/11/22 07:21:11;;;;;;;0.50;0.10;;;7.50;99.90;;;;;;6124071;23;20434;-71
2022/11/22 07:23:42;;;;;;;0.50;0.10;;;7.40;99.90;;;;;;6123959;23;20440;-72
2022/11/22 07:26:10;;;;;;;0.53;0.20;;;7.40;99.90;;;;;;6124814;23;20490;-72
2022/11/22 07:28:38;;;;;;;17.57;6.03;;;;;;;;;;6124878;23;20453;-73
2022/11/22 07:31:09;;;;;;;1.80;1.70;;;7.50;99.90;;;;;;6124500;23;20453;-74
2022/11/22 07:33:37;;;;;;;5.57;2.00;;;7.50;99.90;;;;;;6123853;23;20386;-71
2022/11/22 07:36:06;;;;;;;0.50;0.10;;;7.60;99.90;;;;;;6124388;23;20430;-71
2022/11/22 07:38:34;;;;;;;0.60;0.30;;;7.60;99.90;;;;;;6124584;23;20461;-72
2022/11/22 07:41:03;;;;;;;4.10;3.03;;;7.60;99.90;;;;;;6124516;23;20406;-70
2022/11/22 07:43:30;;;;;;;1.03;0.97;;;7.60;99.90;;;;;;6124419;23;20382;-71
2022/11/22 07:45:58;;;;;;;0.50;0.10;;;7.70;99.90;;;;;;6124062;23;20454;-72
2022/11/22 07:48:28;;;;;;;0.50;0.10;;;7.70;99.90;;;;;;6123723;23;20414;-71
2022/11/22 07:50:56;;;;;;;0.50;0.10;;;7.70;99.90;;;;;;6124513;23;20505;-72
2022/11/22 07:53:23;;;;;;;0.60;0.37;;;7.70;99.90;;;;;;6124416;23;20437;-71
2022/11/22 07:55:51;;;;;;;7.63;5.10;;;7.80;99.90;;;;;;6124308;23;20481;-71
2022/11/22 07:58:19;;;;;;;0.50;0.10;;;7.80;99.90;;;;;;6124247;23;20481;-71
2022/11/22 08:00:47;;;;;;;0.50;0.20;;;;;;;;;;6123156;23;20417;-71
2022/11/22 08:03:15;;;;;;;0.50;0.10;;;7.80;99.90;;;;;;6125680;23;20762;-71
2022/11/22 08:05:46;;;;;;;0.50;0.10;;;7.80;99.90;;;;;;6126366;23;20425;-72
2022/11/22 08:08:14;;;;;;;0.50;0.10;;;7.80;99.90;;;;;;6126265;23;20405;-72
2022/11/22 08:10:44;;;;;;;0.50;0.17;;;7.70;99.90;;;;;;6125917;23;20406;-72
2022/11/22 08:13:11;;;;;;;0.50;0.30;;;7.70;99.90;;;;;;6125511;23;20457;-72
2022/11/22 08:15:39;;;;;;;0.50;0.20;;;7.70;99.90;;;;;;6125877;23;20493;-71
2022/11/22 08:18:07;;;;;;;0.50;0.10;;;7.70;99.90;;;;;;6126391;23;20410;-71
2022/11/22 08:20:35;;;;;;;0.50;0.10;;;7.70;99.90;;;;;;6126029;23;20413;-71
2022/11/22 08:23:04;;;;;;;2.73;1.27;;;7.70;99.90;;;;;;6125245;23;20442;-71
2022/11/22 08:25:31;;;;;;;0.50;0.20;;;7.70;99.90;;;;;;6125521;23;20430;-71
2022/11/22 08:27:59;;;;;;;0.60;0.30;;;7.80;99.90;;;;;;6126582;23;20412;-71
2022/11/22 08:30:27;;;;;;;0.50;0.10;;;7.80;99.90;;;;;;6125783;23;20417;-72
2022/11/22 08:32:55;;;;;;;0.50;0.10;;;7.90;99.90;;;;;;6125229;23;20413;-72
2022/11/22 08:35:23;;;;;;;2.20;2.10;;;8.00;99.90;;;;;;6126074;23;20430;-72
2022/11/22 08:37:56;;;;;;;0.50;0.10;;;8.00;99.90;;;;;;6126034;23;20476;-72
2022/11/22 08:40:25;;;;;;;0.50;0.10;;;8.10;99.90;;;;;;6125815;23;20417;-69
2022/11/22 08:42:55;;;;;;;0.50;0.10;;;8.10;99.90;;;;;;6120397;23;20437;-71
2022/11/22 08:45:23;;;;;;;0.50;0.10;;;8.20;99.90;;;;;;6125225;23;20810;-71
2022/11/22 08:47:52;;;;;;;0.50;0.10;;;8.20;99.90;;;;;;6123179;23;20406;-71
2022/11/22 08:50:20;;;;;;;0.50;0.10;;;10.00;99.90;;;;;;6123226;23;20402;-73
2022/11/22 08:52:47;;;;;;;0.50;0.10;;;8.40;99.90;;;;;;6123218;23;20411;-71
2022/11/22 08:55:15;;;;;;;0.50;0.10;;;8.50;99.90;;;;;;6124715;23;20501;-71
2022/11/22 08:57:44;;;;;;;0.50;0.10;;;8.50;99.90;;;;;;6128098;23;20903;-71
2022/11/22 09:00:13;;;;;;;0.50;0.10;;;8.50;99.90;;;;;;6129637;23;20766;-71
2022/11/22 09:02:41;;;;;;;0.50;0.10;;;8.60;99.90;;;;;;6128956;23;20437;-71
2022/11/22 09:05:09;;;;;;;0.50;0.10;;;8.70;99.90;;;;;;6126981;23;20477;-72
2022/11/22 09:07:37;;;;;;;0.50;0.10;;;8.70;99.90;;;;;;6123334;23;20512;-71
2022/11/22 09:10:25;;;;;;;0.50;0.20;;;8.70;99.90;;;;;;6123050;23;20413;-71
2022/11/22 09:12:54;;;;;;;0.50;0.10;;;8.70;99.90;;;;;;6123287;23;20402;-70
2022/11/22 09:15:22;;;;;;;0.50;0.10;;;8.70;99.90;;;;;;6124384;23;20433;-69
2022/11/22 09:17:50;;;;;;;0.50;0.10;;;8.70;99.90;;;;;;6121051;23;20470;-69
2022/11/22 09:20:18;;;;;;;0.50;0.10;;;8.70;99.90;;;;;;6124472;23;20406;-71
2022/11/22 09:22:46;;;;;;;0.50;0.10;;;8.60;99.90;;;;;;6119197;23;20840;-70
2022/11/22 09:25:13;;;;;;;0.50;0.10;;;8.60;99.90;;;;;;6124142;23;20430;-71
2022/11/22 09:27:41;;;;;;;0.50;0.20;;;8.60;99.90;;;;;;6124196;23;20747;-71
2022/11/22 09:30:11;;;;;;;0.50;0.10;;;8.60;99.90;;;;;;6124161;23;20886;-70
2022/11/22 09:32:39;;;;;;;0.50;0.10;;;8.60;98.40;;;;;;6123839;23;20410;-73
2022/11/22 09:35:07;;;;;;;1.03;0.47;;;8.60;96.60;;;;;;6123432;23;20465;-71
2022/11/22 09:37:35;;;;;;;0.50;0.20;;;8.60;94.20;;;;;;6124814;23;20409;-70
2022/11/22 09:40:02;;;;;;;0.50;0.10;;;8.60;93.20;;;;;;6124827;23;20903;-71
2022/11/22 09:43:08;;;;;;;0.50;0.20;;;8.70;91.00;;;;;;6124016;23;20946;-71
2022/11/22 09:45:57;;;;;;;0.50;0.10;;;8.80;75.10;;;;;;6110133;23;20794;-71
2022/11/22 09:48:37;;;;;;;2.40;0.50;;;8.90;58.60;;;;;;6124572;23;20405;-71
2022/11/22 09:51:09;;;;;;;0.60;0.20;;;8.80;64.30;;;;;;6124388;23;20409;-71
2022/11/22 09:53:42;;;;;;;0.70;0.20;;;8.80;48.70;;;;;;6124284;23;20382;-71
2022/11/22 09:56:13;;;;;;;0.80;0.40;;;8.80;31.30;;;;;;6124136;23;20484;-70
2022/11/22 09:58:45;;;;;;;0.50;0.10;;;8.90;29.00;;;;;;6125154;23;20469;-72
2022/11/22 10:01:17;;;;;;;0.60;0.27;;;8.90;33.20;;;;;;6124888;23;20401;-71
2022/11/22 10:03:48;;;;;;;0.50;0.10;;;8.90;31.80;;;;;;6123424;23;20440;-72
2022/11/22 10:06:22;;;;;;;1.67;1.03;;;8.90;22.50;;;;;;6123519;23;20426;-71
2022/11/22 10:08:59;;;;;;;1.90;1.80;;;8.90;24.20;;;;;;6124803;23;20446;-71
2022/11/22 10:11:34;;;;;;;1.07;0.57;;;8.90;20.90;;;;;;6118107;23;20409;-73
2022/11/22 10:14:11;;;;;;;0.50;0.10;;;8.80;8.60;;;;;;6124436;23;20382;-72
2022/11/22 10:16:47;;;;;;;0.50;0.20;;;8.80;12.50;;;;;;6123623;23;20390;-71
2022/11/22 10:19:19;;;;;;;0.50;0.10;;;8.70;6.20;;;;;;6123616;23;20410;-73
2022/11/22 10:21:47;;;;;;;0.50;0.10;;;8.70;5.20;;;;;;6122142;23;20756;-73
2022/11/22 10:24:16;;;;;;;0.50;0.10;;;8.80;1.00;;;;;;6123332;23;20476;-72
2022/11/22 10:26:45;;;;;;;0.50;0.10;;;8.80;1.00;;;;;;6122712;23;20740;-73
2022/11/22 10:29:25;;;;;;;0.50;0.20;;;8.70;1.00;;;;;;6124260;23;20397;-73
2022/11/22 10:32:01;;;;;;;0.70;0.30;;;8.80;1.00;;;;;;6124632;23;20434;-73
2022/11/22 10:34:42;;;;;;;0.50;0.20;;;8.80;1.00;;;;;;6124496;23;20434;-73
2022/11/22 10:37:18;;;;;;;0.50;0.10;;;8.80;1.00;;;;;;6124810;23;20793;-72
2022/11/22 10:40:02;;;;;;;1.37;1.23;;;8.80;1.00;;;;;;6125067;23;20440;-74
2022/11/22 10:42:59;;;;;;;0.50;0.10;;;8.90;1.00;;;;;;6125068;23;20406;-74
2022/11/22 10:45:31;;;;;;;0.50;0.10;;;8.90;1.00;;;;;;6123113;23;20453;-72
2022/11/22 10:48:11;;;;;;;0.50;0.10;;;9.00;1.00;;;;;;6124344;23;20417;-75
2022/11/22 10:50:52;;;;;;;0.50;0.10;;;9.10;1.00;;;;;;6124744;23;20393;-73
2022/11/22 10:53:30;;;;;;;0.50;0.10;;;9.10;1.00;;;;;;6118626;23;20472;-75
2022/11/22 10:56:05;;;;;;;0.50;0.10;;;9.20;1.00;;;;;;6123630;23;20422;-74
2022/11/22 10:58:43;;;;;;;6.83;0.67;;;9.10;1.00;;;;;;6124751;23;20456;-78
2022/11/22 11:01:20;;;;;;;0.50;0.10;;;9.10;1.00;;;;;;6124489;23;20929;-72
2022/11/22 11:03:53;;;;;;;0.50;0.10;;;9.10;1.00;;;;;;6123505;23;20441;-73
2022/11/22 11:06:26;;;;;;;0.50;0.10;;;9.10;1.00;;;;;;6124135;23;20813;-72
2022/11/22 11:09:21;;;;;;;0.50;0.10;;;9.20;1.00;;;;;;6123741;23;20476;-71
2022/11/22 11:12:14;;;;;;;0.50;0.10;;;9.20;1.00;;;;;;6123830;23;20794;-74
2022/11/22 11:14:45;;;;;;;0.50;0.10;;;9.30;1.00;;;;;;6123772;23;20456;-71
2022/11/22 11:17:17;;;;;;;0.60;0.33;;;9.30;1.00;;;;;;6124840;23;20736;-70
2022/11/22 11:19:49;;;;;;;1.80;1.70;;;9.30;1.00;;;;;;6124395;23;20476;-71
2022/11/22 11:22:21;;;;;;;0.50;0.10;;;9.30;1.00;;;;;;6124278;23;20410;-72
2022/11/22 11:25:32;;;;;;;0.50;0.10;;;9.40;1.00;;;;;;6124205;23;20898;-75
2022/11/22 11:28:03;;;;;;;0.50;0.20;;;10.70;1.00;;;;;;6124854;23;20410;-72
2022/11/22 11:30:38;;;;;;;0.50;0.10;;;9.50;1.00;;;;;;6124698;23;20394;-73
2022/11/22 11:33:19;;;;;;;0.50;0.20;;;9.60;1.00;;;;;;6124011;23;20433;-78
2022/11/22 11:35:50;;;;;;;0.50;0.10;;;9.60;1.00;;;;;;6124337;23;20456;-74
2022/11/22 11:38:29;;;;;;;0.50;0.10;;;9.60;1.00;;;;;;6125602;23;20961;-76
2022/11/22 11:40:57;;;;;;;0.50;0.10;;;9.80;1.00;;;;;;6120871;23;20410;-75
2022/11/22 11:43:25;;;;;;;0.87;0.73;;;9.80;1.00;;;;;;6125512;23;20426;-75
2022/11/22 11:45:53;;;;;;;0.50;0.10;;;9.80;1.00;;;;;;6124121;23;20786;-75
2022/11/22 11:48:27;;;;;;;0.50;0.10;;;9.90;1.00;;;;;;6122954;23;20437;-74
2022/11/22 11:51:16;;;;;;;0.50;0.10;;;9.90;1.00;;;;;;6124532;23;20802;-74
2022/11/22 11:53:51;;;;;;;0.50;0.20;;;9.90;1.00;;;;;;6126017;23;20736;-76
2022/11/22 11:56:25;;;;;;;0.50;0.20;;;9.90;1.00;;;;;;6126591;23;20413;-70
2022/11/22 11:58:55;;;;;;;0.50;0.10;;;10.00;1.00;;;;;;6125263;23;20408;-71
2022/11/22 12:01:24;;;;;;;0.50;0.10;;;9.90;1.00;;;;;;6125534;23;20402;-70
2022/11/22 12:03:58;;;;;;;0.50;0.10;;;9.80;1.00;;;;;;6125271;23;20957;-73
2022/11/22 12:06:31;;;;;;;0.70;0.40;;;9.70;1.00;;;;;;6126032;23;20394;-73
2022/11/22 12:09:01;;;;;;;0.50;0.10;;;9.70;1.00;;;;;;6126135;23;20974;-74
2022/11/22 12:11:37;;;;;;;0.50;0.10;;;9.80;1.00;;;;;;6126532;23;20410;-74
2022/11/22 12:14:12;;;;;;;0.50;0.10;;;9.60;1.00;;;;;;6126267;23;20390;-73
2022/11/22 12:16:52;;;;;;;0.50;0.10;;;9.50;1.00;;;;;;6126382;23;20387;-72
2022/11/22 12:19:28;;;;;;;0.50;0.20;;;9.60;1.00;;;;;;6125623;23;20422;-74
2022/11/22 12:22:02;;;;;;;0.50;0.10;;;9.60;1.00;;;;;;6125970;23;20406;-74
2022/11/22 12:24:37;;;;;;;0.50;0.10;;;9.70;1.00;;;;;;6125739;23;20496;-73
2022/11/22 12:27:25;;;;;;;0.50;0.10;;;9.80;1.00;;;;;;6126081;23;20735;-77
2022/11/22 12:29:53;;;;;;;0.50;0.10;;;9.80;1.00;;;;;;6125861;23;20982;-76
2022/11/22 12:32:26;;;;;;;0.50;0.10;;;9.90;1.00;;;;;;6126176;23;20414;-75
2022/11/22 12:35:00;;;;;;;0.50;0.10;;;10.00;1.00;;;;;;6126572;23;20438;-74
2022/11/22 12:37:34;;;;;;;0.50;0.10;;;10.10;1.00;;;;;;6126853;23;20445;-74
2022/11/22 12:40:06;;;;;;;0.50;0.10;;;10.00;1.00;;;;;;6126846;23;20714;-74
2022/11/22 12:42:41;;;;;;;0.50;0.10;;;10.10;1.00;;;;;;6125343;23;20398;-75
2022/11/22 12:45:16;;;;;;;0.50;0.10;;;10.10;1.00;;;;;;6126226;23;20445;-74
2022/11/22 12:47:47;;;;;;;0.60;0.20;;;10.00;1.00;;;;;;6125917;23;20386;-73
2022/11/22 12:50:21;;;;;;;0.50;0.10;;;10.00;1.00;;;;;;6125912;23;20460;-73
2022/11/22 12:52:55;;;;;;;0.50;0.10;;;9.90;1.00;;;;;;6125819;23;20396;-74
2022/11/22 12:55:25;;;;;;;0.50;0.10;;;9.90;1.00;;;;;;6126085;23;20758;-75
2022/11/22 12:57:57;;;;;;;0.50;0.10;;;10.00;1.00;;;;;;6124742;23;20814;-73
2022/11/22 13:00:28;;;;;;;0.50;0.20;;;10.00;1.00;;;;;;6125677;23;20405;-73
2022/11/22 13:03:02;;;;;;;0.50;0.20;;;10.00;1.00;;;;;;6121977;23;20886;-73
2022/11/22 13:05:47;;;;;;;0.50;0.20;;;9.90;1.00;;;;;;6127518;23;20449;-75
2022/11/22 13:08:22;;;;;;;0.50;0.10;;;10.00;1.00;;;;;;6128220;23;20414;-75
2022/11/22 13:10:54;;;;;;;0.50;0.10;;;9.90;1.00;;;;;;6127938;23;20378;-74
2022/11/22 13:13:26;;;;;;;0.50;0.10;;;10.00;1.00;;;;;;6019657;23;20449;-76
2022/11/22 13:15:57;;;;;;;14.77;11.67;;;10.00;1.00;;;;;;6053540;23;20439;-75
2022/11/22 13:18:28;;;;;;;0.60;0.37;;;9.90;1.00;;;;;;6068521;23;20392;-76
2022/11/22 13:21:01;;;;;;;0.77;0.47;;;9.90;1.00;;;;;;6067950;23;20412;-76
2022/11/22 13:23:54;;;;;;;0.50;0.10;;;9.90;1.00;;;;;;6068285;23;20456;-74
2022/11/22 13:26:32;;;;;;;0.50;0.17;;;9.90;1.00;;;;;;6067341;23;20916;-73
2022/11/22 13:29:04;;;;;;;0.50;0.10;;;9.90;1.00;;;;;;6070755;23;20436;-73
2022/11/22 13:31:32;;;;;;;0.50;0.10;;;9.90;1.00;;;;;;6068935;23;20432;-76
2022/11/22 13:34:25;;;;;;;0.50;0.10;;;9.80;1.00;;;;;;6068082;23;20407;-75
2022/11/22 13:36:53;;;;;;;0.50;0.20;;;9.80;1.00;;;;;;6068412;23;20404;-73
2022/11/22 13:39:30;;;;;;;0.50;0.20;;;9.70;1.00;;;;;;6068815;23;20753;-73
2022/11/22 13:42:05;;;;;;;0.50;0.10;;;9.80;1.00;;;;;;6069488;23;20388;-76
2022/11/22 13:45:26;;;;;;;0.50;0.20;;;9.80;1.00;;;;;;6073911;23;20462;-78
2022/11/22 13:47:54;;;;;;;1.23;0.63;;;9.80;1.00;;;;;;6024812;23;20420;-76
2022/11/22 13:50:59;;;;;;;0.50;0.10;;;9.80;1.00;;;;;;6068885;23;20404;-76
2022/11/22 13:53:30;;;;;;;0.50;0.20;;;9.80;1.00;;;;;;6067244;23;20396;-75
2022/11/22 13:56:46;;;;;;;0.50;0.10;;;9.70;1.00;;;;;;6067415;23;20511;-75
2022/11/22 13:59:17;;;;;;;0.50;0.10;;;9.60;1.00;;;;;;6015494;23;20534;-75
2022/11/22 14:02:01;;;;;;;0.50;0.10;;;9.60;1.00;;;;;;6066470;23;20919;-74
2022/11/22 14:04:43;;;;;;;0.50;0.10;;;9.60;1.00;;;;;;6067407;23;20448;-75
2022/11/22 14:07:33;;;;;;;0.50;0.10;;;9.60;1.00;;;;;;6067634;23;20408;-76
2022/11/22 14:10:22;;;;;;;0.50;0.10;;;9.60;1.00;;;;;;6056428;23;20407;-77
2022/11/22 14:13:04;;;;;;;0.50;0.10;;;9.70;1.00;;;;;;6066712;23;20920;-77
2022/11/22 14:15:51;;;;;;;0.50;0.10;;;9.70;1.00;;;;;;6067558;23;20511;-75
2022/11/22 14:18:46;;;;;;;0.50;0.10;;;9.70;1.00;;;;;;6066339;23;20407;-77
2022/11/22 14:21:25;;;;;;;0.50;0.20;;;9.70;1.00;;;;;;6068268;23;20403;-77
2022/11/22 14:24:04;;;;;;;0.50;0.20;;;9.60;1.00;;;;;;6066866;23;20416;-76
2022/11/22 14:26:41;;;;;;;0.50;0.10;;;9.60;1.00;;;;;;6066782;23;20432;-78
2022/11/22 14:29:42;;;;;;;0.50;0.10;;;9.60;1.00;;;;;;6068235;23;20412;-76
2022/11/22 14:32:15;;;;;;;0.50;0.10;;;9.60;1.00;;;;;;6066272;23;20458;-75
2022/11/22 14:35:17;;;;;;;1.00;0.67;;;9.60;1.00;;;;;;6067632;23;20423;-76
2022/11/22 14:37:47;;;;;;;0.50;0.20;;;9.60;1.00;;;;;;6069465;23;20391;-75
2022/11/22 14:40:29;;;;;;;0.50;0.10;;;9.50;1.00;;;;;;6068467;23;20412;-75
2022/11/22 14:43:00;;;;;;;0.50;0.10;;;9.50;1.00;;;;;;6067196;23;20418;-76
2022/11/22 14:45:38;;;;;;;0.50;0.10;;;9.50;1.00;;;;;;6064820;23;20499;-74
2022/11/22 14:48:16;;;;;;;2.10;0.70;;;9.50;1.00;;;;;;6067574;23;20430;-74
2022/11/22 14:50:48;;;;;;;0.50;0.20;;;9.50;1.00;;;;;;6066693;23;20388;-73
2022/11/22 14:53:24;;;;;;;0.50;0.20;;;9.40;1.00;;;;;;6066679;23;20408;-75
2022/11/22 14:55:57;;;;;;;0.50;0.10;;;9.40;1.00;;;;;;6067382;23;20424;-73
2022/11/22 14:58:29;;;;;;;0.50;0.10;;;9.40;1.00;;;;;;6066370;23;20443;-76
2022/11/22 15:01:17;;;;;;;0.50;0.10;;;9.40;1.00;;;;;;6065457;23;20790;-74
2022/11/22 15:04:08;;;;;;;0.50;0.10;;;9.40;1.00;;;;;;6066892;23;20419;-74
2022/11/22 15:07:11;;;;;;;0.60;0.30;;;9.40;1.00;;;;;;6066288;23;20515;-75
2022/11/22 15:10:26;;;;;;;0.50;0.10;;;9.40;1.00;;;;;;6064918;23;20450;-76
2022/11/22 15:13:23;;;;;;;10.40;0.87;;;9.30;1.00;;;;;;6066142;23;20729;-75
2022/11/22 15:15:53;;;;;;;0.50;0.10;;;9.20;1.00;;;;;;6066147;23;20443;-75
2022/11/22 15:18:48;;;;;;;0.50;0.10;;;9.20;1.00;;;;;;6067048;23;20400;-73
2022/11/22 15:21:37;;;;;;;0.80;0.53;;;9.20;1.00;;;;;;6065239;23;20467;-74
2022/11/22 15:24:30;;;;;;;0.50;0.10;;;9.20;1.00;;;;;;6066697;23;20795;-74
2022/11/22 15:27:25;;;;;;;0.50;0.10;;;9.20;1.00;;;;;;6067849;23;20415;-76
2022/11/22 15:30:15;;;;;;;0.50;0.10;;;9.10;1.00;;;;;;6070435;23;20792;-75
2022/11/22 15:33:03;;;;;;;0.50;0.10;;;9.10;1.00;;;;;;6070010;23;20475;-76
2022/11/22 15:36:02;;;;;;;0.50;0.20;;;9.00;1.00;;;;;;6067037;23;20448;-74
2022/11/22 15:38:50;;;;;;;0.50;0.10;;;9.00;1.00;;;;;;6068851;23;20427;-76
2022/11/22 15:41:38;;;;;;;0.50;0.10;;;;;;;;;;6068333;23;20435;-77
2022/11/22 15:44:26;;;;;;;1.67;0.70;;;;;;;;;;6068195;23;20737;-74
2022/11/22 15:47:18;;;;;;;0.50;0.10;;;9.10;1.00;;;;;;6068330;23;20916;-75
2022/11/22 15:50:09;;;;;;;0.90;0.30;;;9.10;1.00;;;;;;6069291;23;20790;-73
2022/11/22 15:53:18;;;;;;;0.50;0.10;;;9.00;1.00;;;;;;6068073;23;20505;-76
2022/11/22 15:56:14;;;;;;;0.50;0.10;;;9.10;1.00;;;;;;6068317;23;20537;-73
2022/11/22 15:59:02;;;;;;;0.50;0.10;;;9.10;1.00;;;;;;6068887;23;20408;-74
2022/11/22 16:01:30;;;;;;;0.50;0.10;;;9.10;1.00;;;;;;6068402;23;20416;-74
2022/11/22 16:03:59;;;;;;;0.50;0.20;;;9.20;1.00;;;;;;6067628;23;20411;-74
2022/11/22 16:06:30;;;;;;;0.50;0.10;;;9.10;1.00;;;;;;6067999;23;20514;-75
2022/11/22 16:09:02;;;;;;;0.50;0.10;;;9.20;1.00;;;;;;6068361;23;20415;-75
2022/11/22 16:11:33;;;;;;;0.50;0.10;;;9.20;1.00;;;;;;6068681;23;20407;-75
2022/11/22 16:14:01;;;;;;;0.50;0.10;;;9.20;1.00;;;;;;6067209;23;20408;-75
2022/11/22 16:16:30;;;;;;;0.50;0.10;;;9.20;1.00;;;;;;6068811;23;21241;-77
2022/11/22 16:19:19;;;;;;;0.50;0.10;;;9.10;1.00;;;;;;6069881;23;20404;-74
2022/11/22 16:21:55;;;;;;;0.50;0.10;;;9.10;1.30;;;;;;6072794;23;20384;-76
2022/11/22 16:24:27;;;;;;;0.50;0.10;;;9.20;1.00;;;;;;6069521;23;20427;-75
2022/11/22 16:26:57;;;;;;;0.50;0.10;;;9.20;3.50;;;;;;6068258;23;20540;-75
2022/11/22 16:29:30;;;;;;;0.50;0.10;;;9.10;1.00;;;;;;6068276;23;20414;-74
2022/11/22 16:32:01;;;;;;;0.50;0.10;;;9.20;1.00;;;;;;6068042;23;20518;-74
2022/11/22 16:34:29;;;;;;;0.50;0.10;;;9.20;1.00;;;;;;6068065;23;20801;-74
2022/11/22 16:36:57;;;;;;;0.50;0.10;;;;;;;;;;6068429;23;20822;-76
2022/11/22 16:39:27;;;;;;;0.50;0.10;;;9.20;1.00;;;;;;6068094;23;20451;-75
2022/11/22 16:41:55;;;;;;;0.50;0.10;;;9.30;4.00;;;;;;6067452;23;20452;-76
2022/11/22 16:44:23;;;;;;;0.50;0.20;;;9.30;1.00;;;;;;6066988;23;20479;-76
2022/11/22 16:46:51;;;;;;;1.13;0.67;;;9.30;3.40;;;;;;6067057;23;20444;-75
2022/11/22 16:49:20;;;;;;;0.50;0.10;;;9.30;3.10;;;;;;6067963;23;20408;-74
2022/11/22 16:51:49;;;;;;;0.50;0.10;;;9.20;1.00;;;;;;6067589;23;20411;-76
2022/11/22 16:54:19;;;;;;;0.90;0.50;;;9.20;2.70;;;;;;6067484;23;20427;-76
2022/11/22 16:56:48;;;;;;;0.50;0.20;;;9.20;8.00;;;;;;6067758;23;20404;-74
2022/11/22 16:59:16;;;;;;;0.50;0.10;;;9.20;9.90;;;;;;6067063;23;20463;-75
2022/11/22 17:01:44;;;;;;;0.50;0.10;;;9.20;8.50;;;;;;6068194;23;20459;-73
2022/11/22 17:04:21;;;;;;;0.57;0.37;;;9.20;9.30;;;;;;6067042;23;20893;-75
2022/11/22 17:06:49;;;;;;;0.50;0.10;;;;;;;;;;6067137;23;20440;-76
2022/11/22 17:09:17;;;;;;;0.50;0.10;;;9.20;11.80;;;;;;6066015;23;20467;-74
2022/11/22 17:11:45;;;;;;;0.50;0.10;;;9.30;18.20;;;;;;6065127;23;20909;-75
2022/11/22 17:14:15;;;;;;;0.50;0.10;;;9.30;19.70;;;;;;6066137;23;20791;-75
2022/11/22 17:16:44;;;;;;;0.50;0.10;;;9.20;24.70;;;;;;6066974;23;20444;-76
2022/11/22 17:19:12;;;;;;;0.50;0.10;;;9.20;27.50;;;;;;6066962;23;20923;-75
2022/11/22 17:22:00;;;;;;;0.50;0.10;;;9.30;26.30;;;;;;6066836;23;20435;-75
2022/11/22 17:24:29;;;;;;;0.50;0.10;;;9.30;27.90;;;;;;6067522;23;20960;-74
2022/11/22 17:26:57;;;;;;;0.50;0.10;;;9.30;36.40;;;;;;6067322;23;20484;-75
2022/11/22 17:29:27;;;;;;;0.50;0.10;;;9.30;31.90;;;;;;6067883;23;20403;-76
2022/11/22 17:32:15;;;;;;;0.50;0.10;;;9.30;35.20;;;;;;6067068;23;20412;-76
2022/11/22 17:34:42;;;;;;;0.50;0.10;;;9.30;37.90;;;;;;6067060;23;20427;-76
2022/11/22 17:37:11;;;;;;;0.50;0.10;;;9.30;39.60;;;;;;6066890;23;20610;-76
2022/11/22 17:39:40;;;;;;;0.90;0.30;;;9.20;48.10;;;;;;6066727;23;20494;-73
2022/11/22 17:42:10;;;;;;;0.50;0.10;;;9.20;46.80;;;;;;6067221;23;20455;-75